sensor_id;sensor_type;location;lat;lon;timestamp;P1;durP1;ratioP1;P2;durP2;ratioP2
48367;SDS011;34173;47.446;18.912;2022-11-24T00:01:11;39.08;;;18.95;;
48367;SDS011;34173;47.446;18.912;2022-11-24T00:03:44;39.53;;;19.77;;
48367;SDS011;34173;47.446;18.912;2022-11-24T00:06:13;42.50;;;20.30;;
48367;SDS011;34173;47.446;18.912;2022-11-24T00:08:42;40.38;;;19.87;;
48367;SDS011;34173;47.446;18.912;2022-11-24T00:11:14;38.78;;;18.90;;
48367;SDS011;34173;47.446;18.912;2022-11-24T00:13:43;35.97;;;19.08;;
48367;SDS011;34173;47.446;18.912;2022-11-24T00:16:12;34.53;;;17.50;;
48367;SDS011;34173;47.446;18.912;2022-11-24T00:18:42;35.28;;;17.65;;
48367;SDS011;34173;47.446;18.912;2022-11-24T00:21:11;33.83;;;17.20;;
48367;SDS011;34173;47.446;18.912;2022-11-24T00:23:39;32.80;;;16.75;;
48367;SDS011;34173;47.446;18.912;2022-11-24T00:26:08;32.80;;;15.73;;
48367;SDS011;34173;47.446;18.912;2022-11-24T00:28:38;34.33;;;16.23;;
48367;SDS011;34173;47.446;18.912;2022-11-24T00:31:16;30.48;;;15.50;;
48367;SDS011;34173;47.446;18.912;2022-11-24T00:33:48;35.45;;;16.45;;
48367;SDS011;34173;47.446;18.912;2022-11-24T00:36:19;29.75;;;15.10;;
48367;SDS011;34173;47.446;18.912;2022-11-24T00:38:55;33.90;;;16.15;;
48367;SDS011;34173;47.446;18.912;2022-11-24T00:41:23;32.35;;;14.65;;
48367;SDS011;34173;47.446;18.912;2022-11-24T00:43:52;32.10;;;15.32;;
48367;SDS011;34173;47.446;18.912;2022-11-24T00:46:20;30.25;;;15.10;;
48367;SDS011;34173;47.446;18.912;2022-11-24T00:48:48;31.67;;;15.05;;
48367;SDS011;34173;47.446;18.912;2022-11-24T00:51:16;28.15;;;15.98;;
48367;SDS011;34173;47.446;18.912;2022-11-24T00:53:44;32.35;;;16.30;;
48367;SDS011;34173;47.446;18.912;2022-11-24T00:56:12;31.23;;;15.23;;
48367;SDS011;34173;47.446;18.912;2022-11-24T00:58:40;28.38;;;14.63;;
48367;SDS011;34173;47.446;18.912;2022-11-24T01:01:09;31.67;;;15.63;;
48367;SDS011;34173;47.446;18.912;2022-11-24T01:03:38;30.90;;;15.88;;
48367;SDS011;34173;47.446;18.912;2022-11-24T01:06:07;27.30;;;14.30;;
48367;SDS011;34173;47.446;18.912;2022-11-24T01:08:38;32.05;;;16.00;;
48367;SDS011;34173;47.446;18.912;2022-11-24T01:11:11;34.78;;;16.90;;
48367;SDS011;34173;47.446;18.912;2022-11-24T01:13:47;36.13;;;16.87;;
48367;SDS011;34173;47.446;18.912;2022-11-24T01:16:19;37.22;;;18.83;;
48367;SDS011;34173;47.446;18.912;2022-11-24T01:18:48;47.53;;;20.35;;
48367;SDS011;34173;47.446;18.912;2022-11-24T01:21:16;43.35;;;18.58;;
48367;SDS011;34173;47.446;18.912;2022-11-24T01:23:44;41.35;;;19.62;;
48367;SDS011;34173;47.446;18.912;2022-11-24T01:26:13;44.10;;;20.95;;
48367;SDS011;34173;47.446;18.912;2022-11-24T01:28:43;44.58;;;22.10;;
48367;SDS011;34173;47.446;18.912;2022-11-24T01:31:14;42.47;;;20.02;;
48367;SDS011;34173;47.446;18.912;2022-11-24T01:33:41;43.63;;;20.83;;
48367;SDS011;34173;47.446;18.912;2022-11-24T01:36:09;46.53;;;22.23;;
48367;SDS011;34173;47.446;18.912;2022-11-24T01:38:36;48.60;;;23.33;;
48367;SDS011;34173;47.446;18.912;2022-11-24T01:41:05;47.78;;;22.65;;
48367;SDS011;34173;47.446;18.912;2022-11-24T01:43:44;44.83;;;21.27;;
48367;SDS011;34173;47.446;18.912;2022-11-24T01:51:48;53.42;;;24.02;;
48367;SDS011;34173;47.446;18.912;2022-11-24T01:54:28;46.28;;;23.38;;
48367;SDS011;34173;47.446;18.912;2022-11-24T01:57:04;47.22;;;21.83;;
48367;SDS011;34173;47.446;18.912;2022-11-24T01:59:35;51.15;;;23.80;;
48367;SDS011;34173;47.446;18.912;2022-11-24T02:02:03;44.90;;;22.73;;
48367;SDS011;34173;47.446;18.912;2022-11-24T02:04:32;56.03;;;25.15;;
48367;SDS011;34173;47.446;18.912;2022-11-24T02:07:01;47.88;;;22.60;;
48367;SDS011;34173;47.446;18.912;2022-11-24T02:09:31;48.25;;;21.20;;
48367;SDS011;34173;47.446;18.912;2022-11-24T02:12:02;51.30;;;22.73;;
48367;SDS011;34173;47.446;18.912;2022-11-24T02:14:33;52.22;;;24.20;;
48367;SDS011;34173;47.446;18.912;2022-11-24T02:17:02;57.58;;;24.52;;
48367;SDS011;34173;47.446;18.912;2022-11-24T02:22:07;58.42;;;25.90;;
48367;SDS011;34173;47.446;18.912;2022-11-24T02:27:17;53.67;;;23.52;;
48367;SDS011;34173;47.446;18.912;2022-11-24T02:29:45;58.17;;;25.12;;
48367;SDS011;34173;47.446;18.912;2022-11-24T02:32:12;53.30;;;23.65;;
48367;SDS011;34173;47.446;18.912;2022-11-24T02:34:40;58.15;;;26.27;;
48367;SDS011;34173;47.446;18.912;2022-11-24T02:37:08;62.38;;;26.23;;
48367;SDS011;34173;47.446;18.912;2022-11-24T02:39:36;64.03;;;27.65;;
48367;SDS011;34173;47.446;18.912;2022-11-24T02:42:05;57.80;;;25.15;;
48367;SDS011;34173;47.446;18.912;2022-11-24T02:44:36;58.28;;;26.08;;
48367;SDS011;34173;47.446;18.912;2022-11-24T02:47:07;59.03;;;24.92;;
48367;SDS011;34173;47.446;18.912;2022-11-24T02:49:36;64.70;;;27.23;;
48367;SDS011;34173;47.446;18.912;2022-11-24T02:52:04;60.88;;;26.80;;
48367;SDS011;34173;47.446;18.912;2022-11-24T02:54:32;68.25;;;29.40;;
48367;SDS011;34173;47.446;18.912;2022-11-24T02:57:00;69.20;;;30.55;;
48367;SDS011;34173;47.446;18.912;2022-11-24T02:59:27;65.93;;;29.73;;
48367;SDS011;34173;47.446;18.912;2022-11-24T03:01:55;68.87;;;31.98;;
48367;SDS011;34173;47.446;18.912;2022-11-24T03:04:22;70.68;;;30.73;;
48367;SDS011;34173;47.446;18.912;2022-11-24T03:06:50;71.95;;;27.33;;
48367;SDS011;34173;47.446;18.912;2022-11-24T03:09:17;60.90;;;26.37;;
48367;SDS011;34173;47.446;18.912;2022-11-24T03:11:45;63.05;;;27.15;;
48367;SDS011;34173;47.446;18.912;2022-11-24T03:14:12;60.53;;;25.92;;
48367;SDS011;34173;47.446;18.912;2022-11-24T03:16:40;58.78;;;25.27;;
48367;SDS011;34173;47.446;18.912;2022-11-24T03:19:07;60.42;;;25.83;;
48367;SDS011;34173;47.446;18.912;2022-11-24T03:21:35;58.38;;;25.80;;
48367;SDS011;34173;47.446;18.912;2022-11-24T03:24:03;66.90;;;26.12;;
48367;SDS011;34173;47.446;18.912;2022-11-24T03:26:32;58.15;;;23.35;;
48367;SDS011;34173;47.446;18.912;2022-11-24T03:29:00;53.55;;;25.52;;
48367;SDS011;34173;47.446;18.912;2022-11-24T03:31:28;59.35;;;25.17;;
48367;SDS011;34173;47.446;18.912;2022-11-24T03:33:55;60.25;;;27.42;;
48367;SDS011;34173;47.446;18.912;2022-11-24T03:36:23;61.63;;;27.25;;
48367;SDS011;34173;47.446;18.912;2022-11-24T03:38:50;62.53;;;25.42;;
48367;SDS011;34173;47.446;18.912;2022-11-24T03:41:18;55.17;;;24.35;;
48367;SDS011;34173;47.446;18.912;2022-11-24T03:43:45;63.97;;;27.05;;
48367;SDS011;34173;47.446;18.912;2022-11-24T03:46:13;63.38;;;27.73;;
48367;SDS011;34173;47.446;18.912;2022-11-24T03:48:40;59.78;;;28.05;;
48367;SDS011;34173;47.446;18.912;2022-11-24T03:51:08;56.97;;;26.20;;
48367;SDS011;34173;47.446;18.912;2022-11-24T03:53:36;49.55;;;23.08;;
48367;SDS011;34173;47.446;18.912;2022-11-24T03:56:03;57.60;;;27.27;;
48367;SDS011;34173;47.446;18.912;2022-11-24T03:58:31;61.13;;;30.12;;
48367;SDS011;34173;47.446;18.912;2022-11-24T04:00:58;62.47;;;27.90;;
48367;SDS011;34173;47.446;18.912;2022-11-24T04:03:26;58.92;;;28.95;;
48367;SDS011;34173;47.446;18.912;2022-11-24T04:05:54;59.97;;;27.67;;
48367;SDS011;34173;47.446;18.912;2022-11-24T04:08:21;61.10;;;27.75;;
48367;SDS011;34173;47.446;18.912;2022-11-24T04:10:49;54.40;;;25.27;;
48367;SDS011;34173;47.446;18.912;2022-11-24T04:13:19;50.08;;;24.10;;
48367;SDS011;34173;47.446;18.912;2022-11-24T04:15:48;62.35;;;28.42;;
48367;SDS011;34173;47.446;18.912;2022-11-24T04:18:16;65.78;;;27.20;;
48367;SDS011;34173;47.446;18.912;2022-11-24T04:20:44;61.95;;;25.30;;
48367;SDS011;34173;47.446;18.912;2022-11-24T04:23:11;68.87;;;30.58;;
48367;SDS011;34173;47.446;18.912;2022-11-24T04:25:39;69.82;;;28.77;;
48367;SDS011;34173;47.446;18.912;2022-11-24T04:28:09;63.97;;;24.87;;
48367;SDS011;34173;47.446;18.912;2022-11-24T04:30:37;71.72;;;27.80;;
48367;SDS011;34173;47.446;18.912;2022-11-24T04:33:06;55.38;;;25.05;;
48367;SDS011;34173;47.446;18.912;2022-11-24T04:35:34;62.58;;;25.17;;
48367;SDS011;34173;47.446;18.912;2022-11-24T04:38:01;80.78;;;29.92;;
48367;SDS011;34173;47.446;18.912;2022-11-24T04:40:29;64.87;;;28.52;;
48367;SDS011;34173;47.446;18.912;2022-11-24T04:42:56;67.95;;;27.17;;
48367;SDS011;34173;47.446;18.912;2022-11-24T04:45:24;59.85;;;26.27;;
48367;SDS011;34173;47.446;18.912;2022-11-24T04:47:51;73.78;;;31.52;;
48367;SDS011;34173;47.446;18.912;2022-11-24T04:50:19;75.70;;;29.48;;
48367;SDS011;34173;47.446;18.912;2022-11-24T04:52:46;69.90;;;28.60;;
48367;SDS011;34173;47.446;18.912;2022-11-24T04:55:14;74.22;;;28.77;;
48367;SDS011;34173;47.446;18.912;2022-11-24T04:57:41;73.05;;;30.55;;
48367;SDS011;34173;47.446;18.912;2022-11-24T05:00:09;58.90;;;24.15;;
48367;SDS011;34173;47.446;18.912;2022-11-24T05:02:37;73.57;;;29.00;;
48367;SDS011;34173;47.446;18.912;2022-11-24T05:05:05;78.37;;;29.37;;
48367;SDS011;34173;47.446;18.912;2022-11-24T05:07:33;73.55;;;28.85;;
48367;SDS011;34173;47.446;18.912;2022-11-24T05:10:01;79.15;;;28.90;;
48367;SDS011;34173;47.446;18.912;2022-11-24T05:12:53;71.20;;;28.52;;
48367;SDS011;34173;47.446;18.912;2022-11-24T05:15:22;65.95;;;23.40;;
48367;SDS011;34173;47.446;18.912;2022-11-24T05:17:50;67.43;;;27.37;;
48367;SDS011;34173;47.446;18.912;2022-11-24T05:20:18;63.17;;;26.23;;
48367;SDS011;34173;47.446;18.912;2022-11-24T05:22:46;70.87;;;27.45;;
48367;SDS011;34173;47.446;18.912;2022-11-24T05:25:13;70.72;;;27.15;;
48367;SDS011;34173;47.446;18.912;2022-11-24T05:27:40;68.37;;;26.73;;
48367;SDS011;34173;47.446;18.912;2022-11-24T05:30:08;59.63;;;24.35;;
48367;SDS011;34173;47.446;18.912;2022-11-24T05:32:36;62.67;;;25.37;;
48367;SDS011;34173;47.446;18.912;2022-11-24T05:35:03;71.15;;;28.52;;
48367;SDS011;34173;47.446;18.912;2022-11-24T05:37:31;59.05;;;25.88;;
48367;SDS011;34173;47.446;18.912;2022-11-24T05:39:59;61.40;;;26.05;;
48367;SDS011;34173;47.446;18.912;2022-11-24T05:42:26;58.95;;;22.80;;
48367;SDS011;34173;47.446;18.912;2022-11-24T05:45:15;72.65;;;25.08;;
48367;SDS011;34173;47.446;18.912;2022-11-24T05:47:44;66.00;;;25.67;;
48367;SDS011;34173;47.446;18.912;2022-11-24T05:50:12;64.45;;;24.58;;
48367;SDS011;34173;47.446;18.912;2022-11-24T05:52:41;57.42;;;23.38;;
48367;SDS011;34173;47.446;18.912;2022-11-24T05:55:09;60.38;;;24.75;;
48367;SDS011;34173;47.446;18.912;2022-11-24T05:57:37;52.45;;;22.02;;
48367;SDS011;34173;47.446;18.912;2022-11-24T06:00:04;61.65;;;23.50;;
48367;SDS011;34173;47.446;18.912;2022-11-24T06:02:38;55.00;;;22.65;;
48367;SDS011;34173;47.446;18.912;2022-11-24T06:05:06;58.80;;;22.00;;
48367;SDS011;34173;47.446;18.912;2022-11-24T06:07:33;54.80;;;22.35;;
48367;SDS011;34173;47.446;18.912;2022-11-24T06:10:01;55.90;;;22.37;;
48367;SDS011;34173;47.446;18.912;2022-11-24T06:12:28;52.97;;;22.80;;
48367;SDS011;34173;47.446;18.912;2022-11-24T06:14:56;57.38;;;23.58;;
48367;SDS011;34173;47.446;18.912;2022-11-24T06:17:23;56.10;;;21.90;;
48367;SDS011;34173;47.446;18.912;2022-11-24T06:19:51;53.13;;;23.05;;
48367;SDS011;34173;47.446;18.912;2022-11-24T06:22:19;58.00;;;24.05;;
48367;SDS011;34173;47.446;18.912;2022-11-24T06:24:46;50.20;;;22.27;;
48367;SDS011;34173;47.446;18.912;2022-11-24T06:27:14;64.93;;;24.08;;
48367;SDS011;34173;47.446;18.912;2022-11-24T06:29:41;60.20;;;22.50;;
48367;SDS011;34173;47.446;18.912;2022-11-24T06:32:08;51.90;;;21.20;;
48367;SDS011;34173;47.446;18.912;2022-11-24T06:34:36;55.78;;;21.67;;
48367;SDS011;34173;47.446;18.912;2022-11-24T06:37:03;52.33;;;23.20;;
48367;SDS011;34173;47.446;18.912;2022-11-24T06:39:31;58.08;;;23.77;;
48367;SDS011;34173;47.446;18.912;2022-11-24T06:41:58;59.38;;;23.10;;
48367;SDS011;34173;47.446;18.912;2022-11-24T06:44:26;54.55;;;22.77;;
48367;SDS011;34173;47.446;18.912;2022-11-24T06:46:53;59.30;;;22.62;;
48367;SDS011;34173;47.446;18.912;2022-11-24T06:49:21;50.72;;;20.42;;
48367;SDS011;34173;47.446;18.912;2022-11-24T06:51:49;49.95;;;20.88;;
48367;SDS011;34173;47.446;18.912;2022-11-24T06:54:17;53.13;;;21.73;;
48367;SDS011;34173;47.446;18.912;2022-11-24T06:56:47;53.60;;;21.52;;
48367;SDS011;34173;47.446;18.912;2022-11-24T06:59:16;50.95;;;22.00;;
48367;SDS011;34173;47.446;18.912;2022-11-24T07:01:44;53.28;;;22.45;;
48367;SDS011;34173;47.446;18.912;2022-11-24T07:04:13;41.58;;;18.30;;
48367;SDS011;34173;47.446;18.912;2022-11-24T07:06:41;52.35;;;20.73;;
48367;SDS011;34173;47.446;18.912;2022-11-24T07:09:10;48.35;;;19.67;;
48367;SDS011;34173;47.446;18.912;2022-11-24T07:11:38;47.80;;;21.12;;
48367;SDS011;34173;47.446;18.912;2022-11-24T07:14:06;56.17;;;21.90;;
48367;SDS011;34173;47.446;18.912;2022-11-24T07:16:33;54.08;;;20.73;;
48367;SDS011;34173;47.446;18.912;2022-11-24T07:19:02;46.30;;;19.62;;
48367;SDS011;34173;47.446;18.912;2022-11-24T07:21:29;48.83;;;21.92;;
48367;SDS011;34173;47.446;18.912;2022-11-24T07:23:57;50.15;;;21.08;;
48367;SDS011;34173;47.446;18.912;2022-11-24T07:26:25;52.78;;;20.67;;
48367;SDS011;34173;47.446;18.912;2022-11-24T07:28:52;49.08;;;20.00;;
48367;SDS011;34173;47.446;18.912;2022-11-24T07:31:20;47.30;;;19.92;;
48367;SDS011;34173;47.446;18.912;2022-11-24T07:33:52;52.53;;;19.15;;
48367;SDS011;34173;47.446;18.912;2022-11-24T07:36:20;48.05;;;19.75;;
48367;SDS011;34173;47.446;18.912;2022-11-24T07:38:48;45.30;;;19.17;;
48367;SDS011;34173;47.446;18.912;2022-11-24T07:41:16;43.95;;;19.48;;
48367;SDS011;34173;47.446;18.912;2022-11-24T07:43:48;47.38;;;18.20;;
48367;SDS011;34173;47.446;18.912;2022-11-24T07:46:17;47.80;;;20.48;;
48367;SDS011;34173;47.446;18.912;2022-11-24T07:48:45;45.28;;;19.25;;
48367;SDS011;34173;47.446;18.912;2022-11-24T07:51:13;40.22;;;16.67;;
48367;SDS011;34173;47.446;18.912;2022-11-24T07:53:42;43.15;;;18.00;;
48367;SDS011;34173;47.446;18.912;2022-11-24T07:56:09;48.38;;;20.17;;
48367;SDS011;34173;47.446;18.912;2022-11-24T07:58:39;47.53;;;19.20;;
48367;SDS011;34173;47.446;18.912;2022-11-24T08:01:10;43.75;;;18.02;;
48367;SDS011;34173;47.446;18.912;2022-11-24T08:03:43;48.45;;;18.30;;
48367;SDS011;34173;47.446;18.912;2022-11-24T08:06:11;49.08;;;18.50;;
48367;SDS011;34173;47.446;18.912;2022-11-24T08:08:59;48.85;;;19.70;;
48367;SDS011;34173;47.446;18.912;2022-11-24T08:11:26;52.95;;;20.30;;
48367;SDS011;34173;47.446;18.912;2022-11-24T08:13:54;53.97;;;21.73;;
48367;SDS011;34173;47.446;18.912;2022-11-24T08:16:22;50.55;;;24.80;;
48367;SDS011;34173;47.446;18.912;2022-11-24T08:18:50;52.00;;;21.73;;
48367;SDS011;34173;47.446;18.912;2022-11-24T08:21:20;52.35;;;22.33;;
48367;SDS011;34173;47.446;18.912;2022-11-24T08:23:53;52.38;;;23.23;;
48367;SDS011;34173;47.446;18.912;2022-11-24T08:26:22;45.95;;;21.05;;
48367;SDS011;34173;47.446;18.912;2022-11-24T08:28:52;49.30;;;20.98;;
48367;SDS011;34173;47.446;18.912;2022-11-24T08:31:21;51.28;;;21.55;;
48367;SDS011;34173;47.446;18.912;2022-11-24T08:33:48;48.60;;;21.15;;
48367;SDS011;34173;47.446;18.912;2022-11-24T08:36:17;45.67;;;18.87;;
48367;SDS011;34173;47.446;18.912;2022-11-24T08:38:45;49.75;;;19.40;;
48367;SDS011;34173;47.446;18.912;2022-11-24T08:41:13;36.75;;;15.02;;
48367;SDS011;34173;47.446;18.912;2022-11-24T08:43:41;45.88;;;19.12;;
48367;SDS011;34173;47.446;18.912;2022-11-24T08:46:10;49.70;;;18.42;;
48367;SDS011;34173;47.446;18.912;2022-11-24T08:48:39;40.38;;;16.10;;
48367;SDS011;34173;47.446;18.912;2022-11-24T08:51:11;48.85;;;19.83;;
48367;SDS011;34173;47.446;18.912;2022-11-24T08:53:41;44.33;;;17.52;;
48367;SDS011;34173;47.446;18.912;2022-11-24T08:56:10;44.75;;;18.00;;
48367;SDS011;34173;47.446;18.912;2022-11-24T08:58:38;53.80;;;19.35;;
48367;SDS011;34173;47.446;18.912;2022-11-24T09:01:10;47.55;;;19.73;;
48367;SDS011;34173;47.446;18.912;2022-11-24T09:03:42;43.72;;;17.10;;
48367;SDS011;34173;47.446;18.912;2022-11-24T09:06:17;48.00;;;20.25;;
48367;SDS011;34173;47.446;18.912;2022-11-24T09:08:45;46.25;;;18.77;;
48367;SDS011;34173;47.446;18.912;2022-11-24T09:11:13;45.92;;;20.33;;
48367;SDS011;34173;47.446;18.912;2022-11-24T09:13:42;49.67;;;17.73;;
48367;SDS011;34173;47.446;18.912;2022-11-24T09:16:11;56.08;;;23.52;;
48367;SDS011;34173;47.446;18.912;2022-11-24T09:18:43;43.90;;;20.30;;
48367;SDS011;34173;47.446;18.912;2022-11-24T09:21:16;61.47;;;25.37;;
48367;SDS011;34173;47.446;18.912;2022-11-24T09:23:45;66.20;;;27.08;;
48367;SDS011;34173;47.446;18.912;2022-11-24T09:26:18;52.53;;;19.27;;
48367;SDS011;34173;47.446;18.912;2022-11-24T09:28:45;55.03;;;21.75;;
48367;SDS011;34173;47.446;18.912;2022-11-24T09:31:13;49.60;;;19.90;;
48367;SDS011;34173;47.446;18.912;2022-11-24T09:33:43;49.30;;;18.95;;
48367;SDS011;34173;47.446;18.912;2022-11-24T09:36:11;47.55;;;20.00;;
48367;SDS011;34173;47.446;18.912;2022-11-24T09:38:39;55.20;;;22.87;;
48367;SDS011;34173;47.446;18.912;2022-11-24T09:52:20;50.55;;;19.42;;
48367;SDS011;34173;47.446;18.912;2022-11-24T09:54:54;49.35;;;21.83;;
48367;SDS011;34173;47.446;18.912;2022-11-24T09:57:25;46.92;;;19.33;;
48367;SDS011;34173;47.446;18.912;2022-11-24T10:00:02;51.60;;;21.23;;
48367;SDS011;34173;47.446;18.912;2022-11-24T10:02:37;46.63;;;22.02;;
48367;SDS011;34173;47.446;18.912;2022-11-24T10:05:05;56.78;;;23.55;;
48367;SDS011;34173;47.446;18.912;2022-11-24T10:07:36;53.65;;;22.58;;
48367;SDS011;34173;47.446;18.912;2022-11-24T10:15:36;50.17;;;19.98;;
48367;SDS011;34173;47.446;18.912;2022-11-24T10:21:06;44.13;;;19.45;;
48367;SDS011;34173;47.446;18.912;2022-11-24T10:26:39;45.55;;;17.85;;
48367;SDS011;34173;47.446;18.912;2022-11-24T10:31:40;43.13;;;17.80;;
48367;SDS011;34173;47.446;18.912;2022-11-24T10:34:11;39.60;;;16.95;;
48367;SDS011;34173;47.446;18.912;2022-11-24T10:36:48;40.53;;;17.33;;
48367;SDS011;34173;47.446;18.912;2022-11-24T10:39:22;41.75;;;18.05;;
48367;SDS011;34173;47.446;18.912;2022-11-24T10:42:10;40.92;;;17.00;;
48367;SDS011;34173;47.446;18.912;2022-11-24T10:44:40;37.38;;;16.77;;
48367;SDS011;34173;47.446;18.912;2022-11-24T10:47:16;38.67;;;16.10;;
48367;SDS011;34173;47.446;18.912;2022-11-24T10:49:51;36.28;;;13.82;;
48367;SDS011;34173;47.446;18.912;2022-11-24T10:52:23;42.35;;;17.90;;
48367;SDS011;34173;47.446;18.912;2022-11-24T10:54:55;44.25;;;18.30;;
48367;SDS011;34173;47.446;18.912;2022-11-24T10:59:58;42.95;;;17.70;;
48367;SDS011;34173;47.446;18.912;2022-11-24T11:04:58;35.90;;;16.83;;
48367;SDS011;34173;47.446;18.912;2022-11-24T11:10:41;30.80;;;14.13;;
48367;SDS011;34173;47.446;18.912;2022-11-24T11:15:49;29.73;;;12.68;;
48367;SDS011;34173;47.446;18.912;2022-11-24T11:18:18;25.77;;;11.15;;
48367;SDS011;34173;47.446;18.912;2022-11-24T11:20:52;22.50;;;11.35;;
48367;SDS011;34173;47.446;18.912;2022-11-24T11:23:22;21.95;;;9.88;;
48367;SDS011;34173;47.446;18.912;2022-11-24T11:28:59;29.55;;;12.60;;
48367;SDS011;34173;47.446;18.912;2022-11-24T11:35:05;21.87;;;10.25;;
48367;SDS011;34173;47.446;18.912;2022-11-24T11:37:37;22.20;;;9.82;;
48367;SDS011;34173;47.446;18.912;2022-11-24T11:40:06;19.80;;;9.02;;
48367;SDS011;34173;47.446;18.912;2022-11-24T11:42:41;25.33;;;11.40;;
48367;SDS011;34173;47.446;18.912;2022-11-24T11:45:35;26.80;;;11.77;;
48367;SDS011;34173;47.446;18.912;2022-11-24T11:50:54;24.70;;;10.65;;
48367;SDS011;34173;47.446;18.912;2022-11-24T11:57:09;22.50;;;10.50;;
48367;SDS011;34173;47.446;18.912;2022-11-24T12:05:29;24.12;;;9.63;;
48367;SDS011;34173;47.446;18.912;2022-11-24T12:10:50;20.62;;;9.95;;
48367;SDS011;34173;47.446;18.912;2022-11-24T12:16:26;18.60;;;9.73;;
48367;SDS011;34173;47.446;18.912;2022-11-24T12:19:26;22.00;;;9.35;;
48367;SDS011;34173;47.446;18.912;2022-11-24T12:22:31;17.52;;;8.93;;
48367;SDS011;34173;47.446;18.912;2022-11-24T12:25:22;21.55;;;8.75;;
48367;SDS011;34173;47.446;18.912;2022-11-24T12:27:58;22.02;;;9.13;;
48367;SDS011;34173;47.446;18.912;2022-11-24T12:33:43;17.77;;;8.13;;
48367;SDS011;34173;47.446;18.912;2022-11-24T12:39:14;19.25;;;8.40;;
48367;SDS011;34173;47.446;18.912;2022-11-24T12:47:20;19.87;;;9.48;;
48367;SDS011;34173;47.446;18.912;2022-11-24T12:50:07;15.48;;;7.75;;
48367;SDS011;34173;47.446;18.912;2022-11-24T12:52:40;16.42;;;8.60;;
48367;SDS011;34173;47.446;18.912;2022-11-24T12:55:16;16.60;;;7.95;;
48367;SDS011;34173;47.446;18.912;2022-11-24T12:57:54;13.55;;;7.62;;
48367;SDS011;34173;47.446;18.912;2022-11-24T13:00:24;16.92;;;7.30;;
48367;SDS011;34173;47.446;18.912;2022-11-24T13:08:17;16.20;;;6.97;;
48367;SDS011;34173;47.446;18.912;2022-11-24T13:10:45;16.05;;;8.45;;
48367;SDS011;34173;47.446;18.912;2022-11-24T13:13:53;15.30;;;7.85;;
48367;SDS011;34173;47.446;18.912;2022-11-24T13:16:28;16.52;;;8.18;;
48367;SDS011;34173;47.446;18.912;2022-11-24T13:19:17;18.73;;;9.70;;
48367;SDS011;34173;47.446;18.912;2022-11-24T13:21:48;22.92;;;11.45;;
48367;SDS011;34173;47.446;18.912;2022-11-24T13:24:26;24.80;;;10.98;;
48367;SDS011;34173;47.446;18.912;2022-11-24T13:29:40;51.95;;;19.52;;
48367;SDS011;34173;47.446;18.912;2022-11-24T13:37:16;24.37;;;10.90;;
48367;SDS011;34173;47.446;18.912;2022-11-24T13:53:30;29.20;;;13.15;;
48367;SDS011;34173;47.446;18.912;2022-11-24T13:58:45;22.62;;;10.75;;
48367;SDS011;34173;47.446;18.912;2022-11-24T14:03:47;21.95;;;10.38;;
48367;SDS011;34173;47.446;18.912;2022-11-24T14:09:30;21.87;;;10.77;;
48367;SDS011;34173;47.446;18.912;2022-11-24T14:12:18;24.92;;;11.98;;
48367;SDS011;34173;47.446;18.912;2022-11-24T14:14:47;22.70;;;11.93;;
48367;SDS011;34173;47.446;18.912;2022-11-24T14:17:20;21.30;;;10.50;;
48367;SDS011;34173;47.446;18.912;2022-11-24T14:19:50;18.55;;;10.30;;
48367;SDS011;34173;47.446;18.912;2022-11-24T14:24:51;25.45;;;12.48;;
48367;SDS011;34173;47.446;18.912;2022-11-24T14:27:25;22.90;;;12.65;;
48367;SDS011;34173;47.446;18.912;2022-11-24T14:29:57;16.62;;;8.10;;
48367;SDS011;34173;47.446;18.912;2022-11-24T14:32:30;15.35;;;8.75;;
48367;SDS011;34173;47.446;18.912;2022-11-24T14:34:57;18.58;;;9.73;;
48367;SDS011;34173;47.446;18.912;2022-11-24T14:37:25;15.82;;;8.13;;
48367;SDS011;34173;47.446;18.912;2022-11-24T14:39:52;22.80;;;12.88;;
48367;SDS011;34173;47.446;18.912;2022-11-24T14:42:21;19.25;;;9.65;;
48367;SDS011;34173;47.446;18.912;2022-11-24T14:47:22;19.20;;;9.60;;
48367;SDS011;34173;47.446;18.912;2022-11-24T14:50:04;15.63;;;8.50;;
48367;SDS011;34173;47.446;18.912;2022-11-24T14:52:34;21.45;;;11.45;;
48367;SDS011;34173;47.446;18.912;2022-11-24T14:55:02;23.12;;;11.43;;
48367;SDS011;34173;47.446;18.912;2022-11-24T14:57:48;19.95;;;11.45;;
48367;SDS011;34173;47.446;18.912;2022-11-24T15:00:24;23.48;;;12.98;;
48367;SDS011;34173;47.446;18.912;2022-11-24T15:03:13;20.35;;;10.65;;
48367;SDS011;34173;47.446;18.912;2022-11-24T15:05:56;22.45;;;13.23;;
48367;SDS011;34173;47.446;18.912;2022-11-24T15:08:26;21.12;;;9.60;;
48367;SDS011;34173;47.446;18.912;2022-11-24T15:10:58;24.17;;;12.85;;
48367;SDS011;34173;47.446;18.912;2022-11-24T15:13:27;21.23;;;10.60;;
48367;SDS011;34173;47.446;18.912;2022-11-24T15:16:05;28.15;;;13.73;;
48367;SDS011;34173;47.446;18.912;2022-11-24T15:18:35;21.58;;;12.07;;
48367;SDS011;34173;47.446;18.912;2022-11-24T15:21:06;25.65;;;13.93;;
48367;SDS011;34173;47.446;18.912;2022-11-24T15:23:34;21.55;;;10.27;;
48367;SDS011;34173;47.446;18.912;2022-11-24T15:28:30;23.40;;;11.27;;
48367;SDS011;34173;47.446;18.912;2022-11-24T15:31:02;23.50;;;11.68;;
48367;SDS011;34173;47.446;18.912;2022-11-24T15:33:31;23.33;;;12.13;;
48367;SDS011;34173;47.446;18.912;2022-11-24T15:35:58;23.33;;;11.40;;
48367;SDS011;34173;47.446;18.912;2022-11-24T15:38:26;29.00;;;16.10;;
48367;SDS011;34173;47.446;18.912;2022-11-24T15:40:54;29.30;;;14.82;;
48367;SDS011;34173;47.446;18.912;2022-11-24T15:43:33;26.27;;;12.80;;
48367;SDS011;34173;47.446;18.912;2022-11-24T15:46:11;27.70;;;12.18;;
48367;SDS011;34173;47.446;18.912;2022-11-24T15:48:38;26.50;;;12.88;;
48367;SDS011;34173;47.446;18.912;2022-11-24T15:51:06;22.70;;;11.10;;
48367;SDS011;34173;47.446;18.912;2022-11-24T15:53:38;21.77;;;11.18;;
48367;SDS011;34173;47.446;18.912;2022-11-24T15:56:13;22.83;;;10.48;;
48367;SDS011;34173;47.446;18.912;2022-11-24T15:58:42;30.30;;;14.77;;
48367;SDS011;34173;47.446;18.912;2022-11-24T16:01:09;25.62;;;13.05;;
48367;SDS011;34173;47.446;18.912;2022-11-24T16:03:37;27.23;;;13.80;;
48367;SDS011;34173;47.446;18.912;2022-11-24T16:06:14;28.50;;;12.80;;
48367;SDS011;34173;47.446;18.912;2022-11-24T16:08:52;32.53;;;15.85;;
48367;SDS011;34173;47.446;18.912;2022-11-24T16:11:20;23.65;;;11.65;;
48367;SDS011;34173;47.446;18.912;2022-11-24T16:13:47;19.55;;;10.55;;
48367;SDS011;34173;47.446;18.912;2022-11-24T16:16:20;23.25;;;11.93;;
48367;SDS011;34173;47.446;18.912;2022-11-24T16:18:49;21.00;;;11.38;;
48367;SDS011;34173;47.446;18.912;2022-11-24T16:21:16;23.60;;;10.65;;
48367;SDS011;34173;47.446;18.912;2022-11-24T16:23:44;26.10;;;11.55;;
48367;SDS011;34173;47.446;18.912;2022-11-24T16:26:12;31.40;;;17.92;;
48367;SDS011;34173;47.446;18.912;2022-11-24T16:28:39;30.20;;;17.35;;
48367;SDS011;34173;47.446;18.912;2022-11-24T16:31:08;27.95;;;17.10;;
48367;SDS011;34173;47.446;18.912;2022-11-24T16:33:36;28.90;;;14.63;;
48367;SDS011;34173;47.446;18.912;2022-11-24T16:36:06;30.12;;;15.23;;